Terminal Aerodrome Forecast
Issued by NWS

Home | Current Version | Previous Version | Text Only | Print | Product List | Glossary On
Versions: 1 2 3 4 5 6 7 8 9 10 11 12 13 14 15 16 17 18 19 20 21 22 23 24 25 26 27 28 29 30 31 32 33 34 35 36 37 38 39
997
FTUS43 KDVN 191404 AAA
TAFCID
TAF AMD
KCID 191404Z 1914/2012 12006KT 1/2SM FZFG OVC001
     FM191600 14006KT 1SM BR OVC003
     FM191900 10005KT 1SM -RA BR OVC005
     FM200200 12004KT 1/2SM -RA FG OVC002=

USA.gov is the U.S. government's official web portal to all federal, state and local government web resources and services.